Time;durP1;ratioP1;P1;durP2;ratioP2;P2;SDS_P1;SDS_P2;PMS_P1;PMS_P2;Temp;Humidity;BMP_temperature;BMP_pressure;BME280_temperature;BME280_humidity;BME280_pressure;Samples;Min_cycle;Max_cycle;Signal;HPM_P1;HPM_P2
2023/06/26 04:02:37;;;;;;;6.10;5.70;;;20.00;99.90;;;;;;5034623;23;20493;-67
2023/06/26 04:05:04;;;;;;;6.03;5.50;;;20.00;99.90;;;;;;5013286;28;20492;-67
2023/06/26 04:07:31;;;;;;;9.73;5.50;;;20.10;99.90;;;;;;5008153;28;20469;-67
2023/06/26 04:09:58;;;;;;;6.10;5.70;;;20.10;99.90;;;;;;5011149;28;20572;-67
2023/06/26 04:12:25;;;;;;;5.87;5.47;;;20.10;99.90;;;;;;4994269;28;20530;-67
2023/06/26 04:14:51;;;;;;;5.87;4.77;;;20.20;99.90;;;;;;4993515;28;20466;-67
2023/06/26 04:17:18;;;;;;;6.03;5.60;;;20.20;99.90;;;;;;4992529;28;20488;-67
2023/06/26 04:19:46;;;;;;;5.90;5.60;;;20.20;99.90;;;;;;4992711;28;20493;-67
2023/06/26 04:22:13;;;;;;;6.23;5.73;;;20.30;99.90;;;;;;4989878;28;20486;-67
2023/06/26 04:24:39;;;;;;;6.43;5.93;;;20.40;99.90;;;;;;4992635;28;20568;-67
2023/06/26 04:27:06;;;;;;;6.40;6.00;;;20.90;99.90;;;;;;4992701;28;20455;-67
2023/06/26 04:29:33;;;;;;;4.77;4.47;;;21.60;99.90;;;;;;4992106;28;20499;-67
2023/06/26 04:32:00;;;;;;;5.57;5.20;;;22.30;99.90;;;;;;4992477;28;20489;-67
2023/06/26 04:34:27;;;;;;;5.00;4.80;;;22.80;99.90;;;;;;4992493;28;20800;-67
2023/06/26 04:36:55;;;;;;;5.60;5.10;;;23.20;99.90;;;;;;4992541;28;20465;-67
2023/06/26 04:39:22;;;;;;;5.77;5.47;;;23.60;99.90;;;;;;4991322;28;20470;-67
2023/06/26 04:41:48;;;;;;;5.20;4.90;;;23.80;99.90;;;;;;4990276;28;20485;-67
2023/06/26 04:44:15;;;;;;;7.63;5.33;;;24.20;99.90;;;;;;4991271;28;20466;-67
2023/06/26 04:46:42;;;;;;;4.40;4.20;;;24.50;99.90;;;;;;4987358;28;20494;-67
2023/06/26 04:49:09;;;;;;;4.50;4.30;;;24.90;99.90;;;;;;4992768;28;20473;-67
2023/06/26 04:51:40;;;;;;;5.07;4.77;;;25.20;99.90;;;;;;4992640;28;20530;-67
2023/06/26 04:54:08;;;;;;;6.10;5.80;;;25.30;99.90;;;;;;4991028;28;20979;-67
2023/06/26 04:56:35;;;;;;;4.27;4.13;;;25.40;99.90;;;;;;4992008;28;20462;-67
2023/06/26 04:59:02;;;;;;;4.87;4.67;;;25.70;99.90;;;;;;4992754;28;20466;-68
2023/06/26 05:01:31;;;;;;;4.50;4.27;;;25.90;99.90;;;;;;4987915;28;20494;-67
2023/06/26 05:03:58;;;;;;;4.50;4.20;;;26.00;99.90;;;;;;4991681;28;20465;-68
2023/06/26 05:06:25;;;;;;;4.47;4.27;;;26.20;99.90;;;;;;4992540;28;20878;-67
2023/06/26 05:08:52;;;;;;;4.63;4.33;;;26.40;99.90;;;;;;4988663;28;20477;-68
2023/06/26 05:11:20;;;;;;;3.93;3.83;;;26.60;99.90;;;;;;4991841;28;20483;-68
2023/06/26 05:13:46;;;;;;;4.07;3.97;;;26.60;99.90;;;;;;4992482;28;20467;-67
2023/06/26 05:16:13;;;;;;;3.80;3.70;;;26.60;99.90;;;;;;4987095;28;20787;-67
2023/06/26 05:18:40;;;;;;;4.33;4.13;;;26.90;99.90;;;;;;4991792;28;20553;-68
2023/06/26 05:21:07;;;;;;;4.20;3.80;;;27.00;99.90;;;;;;4992115;28;20490;-68
2023/06/26 05:23:35;;;;;;;3.80;3.70;;;27.20;99.90;;;;;;4990831;28;20580;-68
2023/06/26 05:26:03;;;;;;;3.73;3.63;;;27.40;99.90;;;;;;4987781;28;20498;-67
2023/06/26 05:28:32;;;;;;;3.43;3.33;;;27.70;99.90;;;;;;4991121;28;20463;-68
2023/06/26 05:31:00;;;;;;;3.90;3.73;;;27.80;99.90;;;;;;4990398;28;20570;-68
2023/06/26 05:33:28;;;;;;;3.20;3.10;;;27.80;99.90;;;;;;4991353;28;20526;-67
2023/06/26 05:35:55;;;;;;;4.20;4.10;;;27.80;99.90;;;;;;4989545;28;20489;-68
2023/06/26 05:38:23;;;;;;;3.50;3.40;;;27.50;99.90;;;;;;4991575;28;20459;-68
2023/06/26 05:40:50;;;;;;;3.37;3.27;;;27.20;99.90;;;;;;4991312;28;20509;-68
2023/06/26 05:43:20;;;;;;;3.40;3.30;;;27.60;99.90;;;;;;4990980;28;20789;-68
2023/06/26 05:45:49;;;;;;;3.30;3.20;;;27.50;99.90;;;;;;4989712;28;20491;-68
2023/06/26 05:48:15;;;;;;;3.97;3.80;;;27.70;99.90;;;;;;4991039;28;20463;-68
2023/06/26 05:50:44;;;;;;;3.73;3.63;;;27.70;99.90;;;;;;4991615;28;20487;-67
2023/06/26 05:53:11;;;;;;;4.03;3.83;;;27.80;99.90;;;;;;4991154;28;20467;-67
2023/06/26 05:55:39;;;;;;;3.30;3.30;;;27.50;99.90;;;;;;4991330;28;20466;-67
2023/06/26 05:58:06;;;;;;;3.70;3.60;;;27.50;99.90;;;;;;4990483;28;20466;-67
2023/06/26 06:00:33;;;;;;;3.37;3.17;;;27.50;99.90;;;;;;4989825;28;20495;-67
2023/06/26 06:03:02;;;;;;;3.97;3.77;;;27.70;99.90;;;;;;4990571;28;20459;-67
2023/06/26 06:05:28;;;;;;;3.37;3.27;;;27.70;99.90;;;;;;4991084;28;20593;-67
2023/06/26 06:07:55;;;;;;;3.03;3.00;;;28.00;99.90;;;;;;4990930;28;20825;-67
2023/06/26 06:10:22;;;;;;;3.30;3.10;;;28.20;99.90;;;;;;4991114;28;20471;-67
2023/06/26 06:12:49;;;;;;;2.97;2.87;;;28.30;99.90;;;;;;4990438;28;20482;-67
2023/06/26 06:15:15;;;;;;;2.80;2.70;;;28.50;99.90;;;;;;4985604;28;20475;-68
2023/06/26 06:17:42;;;;;;;4.57;4.30;;;28.60;99.90;;;;;;4988454;28;20503;-68
2023/06/26 06:20:11;;;;;;;3.30;3.20;;;29.00;99.90;;;;;;4990930;28;20470;-68
2023/06/26 06:22:38;;;;;;;3.17;3.07;;;29.00;99.90;;;;;;4990643;28;20534;-67
2023/06/26 06:25:05;;;;;;;2.50;2.40;;;29.00;99.90;;;;;;4990314;28;20467;-67
2023/06/26 06:27:32;;;;;;;3.23;3.13;;;29.40;99.90;;;;;;4990374;28;20465;-68
2023/06/26 06:29:58;;;;;;;2.93;2.83;;;29.70;99.90;;;;;;4989708;28;20462;-67
2023/06/26 06:32:25;;;;;;;2.83;2.67;;;29.60;99.90;;;;;;4990261;28;20537;-67
2023/06/26 06:34:52;;;;;;;4.37;4.23;;;29.60;99.90;;;;;;4989818;28;20466;-67
2023/06/26 06:37:20;;;;;;;2.70;2.70;;;29.70;99.90;;;;;;4991083;28;20465;-67
2023/06/26 06:39:47;;;;;;;3.63;3.53;;;29.90;99.90;;;;;;4990290;28;20474;-67
2023/06/26 06:42:13;;;;;;;3.20;3.10;;;29.40;99.90;;;;;;4985770;28;20579;-67
2023/06/26 06:44:40;;;;;;;3.47;3.37;;;29.70;99.90;;;;;;4990396;28;20886;-67
2023/06/26 06:47:07;;;;;;;3.60;3.50;;;30.20;99.90;;;;;;4990605;28;20486;-67
2023/06/26 06:49:34;;;;;;;3.50;3.40;;;30.80;99.90;;;;;;4990225;28;20478;-68
2023/06/26 06:52:00;;;;;;;2.63;2.63;;;30.70;99.90;;;;;;4990637;28;20487;-67
2023/06/26 06:54:28;;;;;;;2.60;2.60;;;30.90;99.90;;;;;;4990646;28;20477;-71
2023/06/26 06:56:55;;;;;;;3.40;3.20;;;31.00;99.90;;;;;;4989560;28;20525;-67
2023/06/26 06:59:22;;;;;;;3.13;3.03;;;31.20;99.90;;;;;;4990616;28;20459;-67
2023/06/26 07:01:49;;;;;;;3.33;3.17;;;31.30;99.90;;;;;;4990541;28;20501;-69
2023/06/26 07:04:15;;;;;;;2.83;2.73;;;31.10;99.90;;;;;;4990338;28;20463;-67
2023/06/26 07:06:42;;;;;;;2.17;2.10;;;30.90;99.90;;;;;;4990318;28;20906;-66
2023/06/26 07:09:09;;;;;;;2.60;2.60;;;30.80;99.90;;;;;;4988068;28;20570;-66
2023/06/26 07:11:37;;;;;;;2.67;2.67;;;30.90;99.90;;;;;;4990160;28;20494;-68
2023/06/26 07:14:04;;;;;;;3.10;3.00;;;31.10;99.90;;;;;;4990889;28;20463;-66
2023/06/26 07:16:30;;;;;;;2.67;2.67;;;31.40;99.90;;;;;;4990473;28;20458;-68
2023/06/26 07:18:57;;;;;;;2.60;2.60;;;31.60;99.90;;;;;;4990181;28;20558;-67
2023/06/26 07:21:24;;;;;;;3.03;3.03;;;32.10;99.90;;;;;;4988227;28;20487;-67
2023/06/26 07:23:50;;;;;;;3.00;2.90;;;32.20;99.90;;;;;;4990574;28;20463;-67
2023/06/26 07:26:17;;;;;;;2.50;2.40;;;31.90;99.90;;;;;;4989926;28;20491;-67
2023/06/26 07:28:45;;;;;;;3.27;3.00;;;32.20;99.90;;;;;;4990942;28;20998;-67
2023/06/26 07:31:12;;;;;;;2.40;2.40;;;32.20;99.90;;;;;;4990943;28;20483;-67
2023/06/26 07:33:39;;;;;;;2.77;2.77;;;32.20;99.90;;;;;;4990836;28;20796;-67
2023/06/26 07:36:06;;;;;;;3.17;3.00;;;32.20;99.90;;;;;;4989083;28;20463;-67
2023/06/26 07:38:32;;;;;;;2.60;2.60;;;31.60;99.90;;;;;;4990972;28;20824;-67
2023/06/26 07:40:59;;;;;;;2.50;2.50;;;31.30;99.90;;;;;;4990563;28;20491;-67
2023/06/26 07:43:26;;;;;;;3.03;3.00;;;31.30;99.90;;;;;;4988185;28;20493;-67
2023/06/26 07:45:54;;;;;;;2.37;2.37;;;31.40;99.90;;;;;;4990260;28;20490;-67
2023/06/26 07:48:21;;;;;;;2.53;2.53;;;31.80;99.90;;;;;;4989398;28;20517;-67
2023/06/26 07:50:47;;;;;;;3.27;3.17;;;32.10;99.90;;;;;;4989560;28;20487;-67
2023/06/26 07:53:14;;;;;;;2.97;2.87;;;31.80;99.90;;;;;;4993761;28;20455;-68
2023/06/26 07:55:41;;;;;;;2.93;2.77;;;31.50;99.90;;;;;;4994391;28;20478;-68
2023/06/26 07:58:08;;;;;;;2.93;2.93;;;31.50;99.90;;;;;;4993611;28;20458;-67
2023/06/26 08:00:35;;;;;;;2.63;2.63;;;31.40;99.90;;;;;;4994077;28;20482;-68
2023/06/26 08:03:03;;;;;;;2.50;2.50;;;31.70;99.90;;;;;;4992949;28;20463;-67
2023/06/26 08:05:30;;;;;;;2.73;2.70;;;32.00;99.90;;;;;;4993829;28;20450;-67
2023/06/26 08:07:57;;;;;;;3.13;3.03;;;31.80;99.90;;;;;;4994169;28;20491;-68
2023/06/26 08:10:23;;;;;;;2.57;2.50;;;31.40;99.90;;;;;;4994236;28;20486;-67
2023/06/26 08:12:51;;;;;;;3.23;3.03;;;31.10;99.90;;;;;;4993361;28;20466;-67
2023/06/26 08:15:18;;;;;;;3.30;3.20;;;31.10;99.90;;;;;;4993558;28;21022;-67
2023/06/26 08:17:46;;;;;;;3.60;3.40;;;31.30;99.90;;;;;;4992144;28;20474;-67
2023/06/26 08:20:14;;;;;;;3.50;3.40;;;31.60;99.90;;;;;;4993580;28;20996;-66
2023/06/26 08:22:41;;;;;;;2.80;2.80;;;31.80;99.90;;;;;;4993815;28;20463;-68
2023/06/26 08:25:08;;;;;;;3.03;2.93;;;31.80;99.90;;;;;;4993507;28;20462;-67
2023/06/26 08:27:35;;;;;;;3.10;3.00;;;32.00;99.90;;;;;;4993123;28;20818;-68
2023/06/26 08:30:02;;;;;;;2.93;2.93;;;32.20;99.90;;;;;;4992143;28;20467;-68
2023/06/26 08:32:29;;;;;;;2.97;2.90;;;32.30;99.90;;;;;;4993554;28;20552;-69
2023/06/26 08:34:56;;;;;;;2.43;2.43;;;32.50;99.90;;;;;;4993381;28;20463;-68
2023/06/26 08:37:24;;;;;;;3.03;3.03;;;32.70;99.90;;;;;;4993498;28;20844;-67
2023/06/26 08:39:51;;;;;;;3.00;3.00;;;32.80;99.90;;;;;;4993355;28;20473;-68
2023/06/26 08:42:17;;;;;;;3.17;3.07;;;32.70;99.90;;;;;;4992485;28;20483;-66
2023/06/26 08:44:44;;;;;;;2.80;2.70;;;32.60;99.90;;;;;;4992092;28;20502;-67
2023/06/26 08:47:13;;;;;;;3.20;3.10;;;32.30;99.90;;;;;;4992986;28;20479;-67
2023/06/26 08:49:47;;;;;;;3.20;3.03;;;31.80;99.90;;;;;;4992852;28;21127;-68
2023/06/26 08:52:18;;;;;;;3.97;3.87;;;31.80;99.90;;;;;;4993159;28;20486;-68
2023/06/26 08:54:53;;;;;;;3.50;3.40;;;32.20;99.90;;;;;;4992939;28;20824;-67
2023/06/26 08:57:23;;;;;;;3.60;3.50;;;31.90;99.90;;;;;;4990963;28;20913;-68
2023/06/26 08:59:50;;;;;;;3.20;3.17;;;31.30;99.90;;;;;;4992664;28;20547;-68
2023/06/26 09:02:17;;;;;;;3.27;3.17;;;31.00;99.90;;;;;;4992622;28;20498;-67
2023/06/26 09:04:44;;;;;;;3.50;3.40;;;30.80;99.90;;;;;;4992408;28;20474;-67
2023/06/26 09:07:10;;;;;;;3.10;3.00;;;30.60;99.90;;;;;;4992736;28;20491;-68
2023/06/26 09:09:37;;;;;;;2.90;2.90;;;31.00;99.90;;;;;;4991776;28;20471;-67
2023/06/26 09:12:06;;;;;;;3.80;3.60;;;31.50;99.90;;;;;;4992277;28;20483;-68
2023/06/26 09:14:33;;;;;;;3.60;3.40;;;31.90;99.90;;;;;;4992505;28;20467;-68
2023/06/26 09:16:59;;;;;;;2.90;2.80;;;32.20;99.90;;;;;;4992720;28;20466;-68
2023/06/26 09:19:27;;;;;;;3.40;3.30;;;32.20;99.90;;;;;;4992092;28;20478;-68
2023/06/26 09:21:55;;;;;;;3.50;3.40;;;31.80;99.90;;;;;;4992757;28;20483;-67
2023/06/26 09:24:23;;;;;;;3.17;3.07;;;31.40;99.90;;;;;;4991498;28;20467;-67
2023/06/26 09:26:51;;;;;;;3.60;3.40;;;31.30;99.90;;;;;;4992177;28;20509;-67
2023/06/26 09:29:20;;;;;;;3.03;2.97;;;31.50;99.90;;;;;;4992481;28;20467;-67
2023/06/26 09:31:47;;;;;;;3.33;3.13;;;31.50;99.90;;;;;;4992606;28;20483;-67
2023/06/26 09:34:14;;;;;;;3.67;3.47;;;31.70;99.90;;;;;;4991794;28;20458;-67
2023/06/26 09:36:45;;;;;;;3.30;3.17;;;31.70;99.90;;;;;;4991568;28;20988;-68
2023/06/26 09:39:11;;;;;;;3.87;3.70;;;31.70;99.90;;;;;;4991545;28;20471;-67
2023/06/26 09:41:38;;;;;;;2.90;2.90;;;31.50;99.90;;;;;;4990566;28;21028;-67
2023/06/26 09:44:07;;;;;;;4.70;4.40;;;31.40;99.90;;;;;;4991294;28;20807;-67
2023/06/26 09:46:37;;;;;;;5.27;4.77;;;31.30;99.90;;;;;;4991977;28;21019;-67
2023/06/26 09:49:06;;;;;;;4.07;3.87;;;31.10;99.90;;;;;;4991878;28;20928;-67
2023/06/26 09:51:34;;;;;;;3.13;2.93;;;31.20;99.90;;;;;;4991291;28;20498;-68
2023/06/26 09:54:02;;;;;;;2.80;2.70;;;31.20;99.90;;;;;;4991836;28;20497;-68
2023/06/26 09:56:30;;;;;;;3.67;3.47;;;31.00;99.90;;;;;;4991270;28;20668;-67
2023/06/26 09:58:58;;;;;;;4.67;4.47;;;30.80;99.90;;;;;;4991877;28;20471;-67
2023/06/26 10:01:25;;;;;;;4.50;4.20;;;30.50;99.90;;;;;;4991345;28;20502;-68
2023/06/26 10:03:56;;;;;;;3.70;3.60;;;30.60;99.90;;;;;;4991278;28;20839;-67
2023/06/26 10:06:27;;;;;;;4.87;4.57;;;31.00;99.90;;;;;;4990677;28;20471;-67
2023/06/26 10:08:55;;;;;;;5.17;4.90;;;30.90;99.90;;;;;;4991507;28;20463;-67
2023/06/26 10:11:25;;;;;;;5.23;4.93;;;30.70;99.90;;;;;;4989049;28;20495;-68
2023/06/26 10:13:54;;;;;;;4.10;3.90;;;30.60;99.90;;;;;;4991038;28;20943;-67
2023/06/26 10:16:26;;;;;;;4.43;4.13;;;30.30;99.90;;;;;;4991594;28;20490;-67
2023/06/26 10:19:00;;;;;;;5.10;4.80;;;29.90;99.90;;;;;;4990427;28;20481;-67
2023/06/26 10:21:29;;;;;;;4.17;3.97;;;29.60;99.90;;;;;;4991264;28;20505;-67
2023/06/26 10:23:57;;;;;;;5.53;5.23;;;29.50;99.90;;;;;;4991335;28;20820;-67
2023/06/26 10:26:26;;;;;;;5.27;4.97;;;29.50;99.90;;;;;;4989929;28;20555;-67
2023/06/26 10:28:54;;;;;;;5.50;5.20;;;29.20;99.90;;;;;;4991130;28;20465;-67
2023/06/26 10:31:23;;;;;;;5.47;5.17;;;29.30;99.90;;;;;;4991471;28;20570;-67
2023/06/26 10:33:51;;;;;;;5.77;5.27;;;29.40;99.90;;;;;;4990991;28;20473;-67
2023/06/26 10:36:21;;;;;;;5.37;5.03;;;29.40;99.90;;;;;;4991438;28;20471;-67
2023/06/26 10:38:53;;;;;;;5.73;5.43;;;29.30;99.90;;;;;;4991474;28;20471;-66
2023/06/26 10:41:23;;;;;;;5.50;5.00;;;28.70;99.90;;;;;;4990053;28;20514;-67
2023/06/26 10:43:51;;;;;;;5.67;5.27;;;28.10;99.90;;;;;;4989638;28;20467;-66
2023/06/26 10:46:20;;;;;;;4.20;4.00;;;27.50;99.90;;;;;;4991235;28;20465;-67
2023/06/26 10:48:59;;;;;;;4.80;4.50;;;27.00;99.90;;;;;;4990913;28;20549;-67
2023/06/26 10:51:28;;;;;;;3.73;3.50;;;26.10;99.90;;;;;;4991149;28;20509;-66
2023/06/26 10:53:56;;;;;;;3.03;2.83;;;25.00;99.90;;;;;;4989853;28;20821;-66
2023/06/26 10:56:41;;;;;;;2.10;2.10;;;23.90;99.90;;;;;;4990683;28;20595;-66
2023/06/26 10:59:16;;;;;;;2.10;2.00;;;23.00;99.90;;;;;;4991682;28;20532;-67
2023/06/26 11:01:44;;;;;;;1.93;1.83;;;22.10;99.90;;;;;;4991193;28;20594;-66
2023/06/26 11:04:11;;;;;;;2.80;2.60;;;21.60;99.90;;;;;;4990479;28;20471;-68
2023/06/26 11:06:40;;;;;;;2.90;2.70;;;21.10;99.90;;;;;;4990966;28;20471;-68
2023/06/26 11:09:12;;;;;;;1.80;1.80;;;20.80;99.90;;;;;;4990349;28;21243;-67
2023/06/26 11:12:05;;;;;;;2.70;2.50;;;20.70;99.90;;;;;;4971453;28;20488;-67
2023/06/26 11:14:33;;;;;;;3.13;2.93;;;20.60;99.90;;;;;;4971983;28;20468;-67
2023/06/26 11:17:00;;;;;;;3.33;3.13;;;20.60;99.90;;;;;;4971974;28;20460;-67
2023/06/26 11:19:28;;;;;;;2.83;2.70;;;20.50;99.90;;;;;;4971699;28;20838;-67
2023/06/26 11:22:02;;;;;;;3.63;3.40;;;20.40;99.90;;;;;;4987838;28;20553;-66
2023/06/26 11:24:31;;;;;;;3.70;3.50;;;20.30;99.90;;;;;;4990730;28;20491;-66
2023/06/26 11:27:03;;;;;;;3.30;3.13;;;20.30;99.90;;;;;;4992010;28;21053;-66
2023/06/26 11:29:30;;;;;;;3.13;2.97;;;20.30;99.90;;;;;;4995843;28;20875;-67
2023/06/26 11:32:02;;;;;;;4.10;3.70;;;20.40;99.90;;;;;;4995330;28;20581;-66
2023/06/26 11:34:33;;;;;;;10.47;4.40;;;20.50;99.90;;;;;;4992862;28;20462;-66
2023/06/26 11:37:04;;;;;;;6.43;5.23;;;20.60;99.90;;;;;;4986459;28;20451;-66
2023/06/26 11:39:31;;;;;;;7.73;5.67;;;20.80;99.90;;;;;;4995402;28;20469;-66
2023/06/26 11:41:58;;;;;;;6.53;4.83;;;21.00;99.90;;;;;;4993372;28;20483;-66
2023/06/26 11:44:25;;;;;;;6.53;6.03;;;21.40;99.90;;;;;;4994015;28;21022;-66
2023/06/26 11:46:55;;;;;;;4.43;4.13;;;21.50;99.90;;;;;;4994801;28;20465;-66
2023/06/26 11:49:25;;;;;;;5.60;5.13;;;21.60;99.90;;;;;;4993671;28;20471;-66
2023/06/26 11:51:52;;;;;;;7.03;6.43;;;21.80;99.90;;;;;;4994412;28;20604;-66
2023/06/26 11:54:26;;;;;;;5.30;4.90;;;21.90;99.90;;;;;;4994851;28;20535;-66
2023/06/26 11:56:56;;;;;;;8.30;5.00;;;22.00;99.90;;;;;;4994543;28;20896;-66
2023/06/26 11:59:23;;;;;;;5.87;5.40;;;22.20;99.90;;;;;;4995347;28;20504;-66
2023/06/26 12:01:52;;;;;;;5.73;4.20;;;22.40;99.90;;;;;;4994009;28;21022;-66
2023/06/26 12:04:20;;;;;;;4.57;4.37;;;22.40;99.90;;;;;;4994327;28;20812;-66
2023/06/26 12:06:48;;;;;;;4.70;4.40;;;22.50;99.90;;;;;;4994607;28;20501;-66
2023/06/26 12:09:16;;;;;;;5.70;5.30;;;22.50;99.90;;;;;;4993565;28;20503;-65
2023/06/26 12:11:48;;;;;;;4.90;4.60;;;22.60;99.90;;;;;;4993563;28;20679;-67
2023/06/26 12:14:15;;;;;;;3.87;3.47;;;22.60;99.90;;;;;;4993905;28;20476;-67
2023/06/26 12:16:43;;;;;;;4.33;4.03;;;22.70;99.90;;;;;;4993910;28;20883;-65
2023/06/26 12:19:10;;;;;;;2.97;2.77;;;22.80;99.90;;;;;;4993358;28;20954;-65
2023/06/26 12:21:51;;;;;;;3.13;3.03;;;22.90;99.90;;;;;;4993697;28;20489;-65
2023/06/26 12:24:20;;;;;;;3.33;3.03;;;23.00;99.90;;;;;;4992731;28;20473;-66
2023/06/26 12:26:51;;;;;;;3.00;2.80;;;23.00;99.90;;;;;;4993652;28;20462;-66
2023/06/26 12:29:19;;;;;;;2.33;2.27;;;23.10;99.90;;;;;;4993851;28;20525;-66
2023/06/26 12:31:49;;;;;;;2.60;2.53;;;23.30;99.90;;;;;;4994716;28;20566;-65
2023/06/26 12:34:18;;;;;;;2.90;2.77;;;23.60;99.90;;;;;;4993509;28;20804;-65
2023/06/26 12:36:48;;;;;;;2.30;2.30;;;23.60;99.90;;;;;;4993512;28;20977;-66
2023/06/26 12:39:17;;;;;;;2.40;2.40;;;23.60;99.90;;;;;;4992035;28;20502;-67
2023/06/26 12:41:50;;;;;;;2.07;2.00;;;23.70;99.90;;;;;;4992519;28;20483;-67
2023/06/26 12:44:25;;;;;;;1.60;1.60;;;23.80;99.90;;;;;;4992572;28;20463;-67
2023/06/26 12:46:57;;;;;;;2.27;2.20;;;23.60;99.90;;;;;;4990759;28;20473;-67
2023/06/26 12:49:34;;;;;;;4.47;1.30;;;23.50;99.90;;;;;;4992549;28;20511;-68
2023/06/26 12:52:01;;;;;;;6.23;1.90;;;23.50;99.90;;;;;;4992104;28;20595;-67
2023/06/26 12:54:28;;;;;;;5.40;1.63;;;23.50;99.90;;;;;;4992826;28;20470;-67
2023/06/26 12:56:56;;;;;;;8.20;2.90;;;23.50;99.90;;;;;;4992313;28;20905;-67
2023/06/26 12:59:23;;;;;;;1.50;1.47;;;23.40;99.90;;;;;;4993503;28;20465;-68
2023/06/26 13:01:50;;;;;;;1.50;1.03;;;23.40;99.90;;;;;;4990911;28;20970;-67
2023/06/26 13:04:17;;;;;;;2.80;1.30;;;23.50;99.90;;;;;;4992413;28;20508;-67
2023/06/26 13:06:44;;;;;;;1.47;1.40;;;23.50;99.90;;;;;;4992567;28;20476;-67
2023/06/26 13:09:11;;;;;;;1.20;1.17;;;23.60;99.90;;;;;;4986942;28;20806;-67
2023/06/26 13:11:38;;;;;;;1.40;1.20;;;23.70;99.90;;;;;;4983806;28;20494;-67
2023/06/26 13:14:06;;;;;;;7.23;1.60;;;23.70;99.90;;;;;;4992821;28;20474;-67
2023/06/26 13:16:33;;;;;;;1.10;1.07;;;23.70;99.90;;;;;;4988396;28;20481;-67
2023/06/26 13:19:01;;;;;;;3.40;1.97;;;23.70;99.90;;;;;;4991719;28;20742;-67
2023/06/26 13:21:28;;;;;;;5.03;2.37;;;23.80;99.90;;;;;;4992577;28;20911;-68
2023/06/26 13:23:55;;;;;;;1.13;1.13;;;23.90;99.90;;;;;;4992704;28;20572;-68
2023/06/26 13:26:22;;;;;;;1.20;1.10;;;24.10;99.90;;;;;;4992051;28;20467;-68
2023/06/26 13:28:49;;;;;;;1.90;1.27;;;24.30;99.90;;;;;;4992179;28;20490;-67
2023/06/26 13:31:17;;;;;;;1.40;1.40;;;24.30;99.90;;;;;;4991136;28;20990;-68
2023/06/26 13:33:45;;;;;;;1.70;1.00;;;24.40;99.90;;;;;;4991442;28;20485;-67
2023/06/26 13:36:12;;;;;;;2.67;0.90;;;24.60;99.90;;;;;;4991973;28;20513;-68
2023/06/26 13:38:40;;;;;;;3.10;1.33;;;24.70;99.90;;;;;;4992276;28;20470;-68
2023/06/26 13:41:07;;;;;;;0.70;0.70;;;24.70;99.90;;;;;;4991724;28;20494;-68
2023/06/26 13:43:33;;;;;;;1.30;1.30;;;24.50;99.90;;;;;;4991826;28;20470;-68
2023/06/26 13:46:02;;;;;;;0.80;0.73;;;24.40;99.90;;;;;;4990720;28;20474;-68
2023/06/26 13:48:30;;;;;;;5.90;1.63;;;24.30;99.90;;;;;;4990231;28;20513;-68
2023/06/26 13:50:59;;;;;;;0.83;0.83;;;24.40;99.90;;;;;;4990874;28;20483;-68
2023/06/26 13:53:26;;;;;;;4.30;1.80;;;24.50;99.90;;;;;;4991609;28;20463;-67
2023/06/26 13:55:52;;;;;;;2.20;1.17;;;24.40;99.90;;;;;;4991551;28;20467;-67
2023/06/26 13:58:22;;;;;;;1.10;1.10;;;24.50;99.90;;;;;;4991738;28;20458;-67
2023/06/26 14:00:49;;;;;;;1.43;1.00;;;24.70;99.90;;;;;;4990918;28;20499;-67
2023/06/26 14:03:15;;;;;;;0.90;0.90;;;24.60;99.90;;;;;;4989436;28;20483;-68
2023/06/26 14:05:43;;;;;;;2.07;1.30;;;24.60;99.90;;;;;;4991165;28;20975;-69
2023/06/26 14:08:10;;;;;;;0.70;0.70;;;24.70;99.90;;;;;;4991698;28;20541;-69
2023/06/26 14:10:38;;;;;;;3.93;1.47;;;24.60;99.90;;;;;;4992107;28;20546;-69
2023/06/26 14:13:05;;;;;;;2.00;1.20;;;24.40;99.90;;;;;;4991378;28;20462;-68
2023/06/26 14:15:33;;;;;;;1.40;1.30;;;24.50;99.90;;;;;;4991284;28;20464;-67
2023/06/26 14:18:02;;;;;;;1.47;1.40;;;24.50;99.90;;;;;;4989619;28;20459;-67
2023/06/26 14:20:32;;;;;;;1.33;0.83;;;24.50;99.90;;;;;;4991580;28;20460;-67
2023/06/26 14:23:00;;;;;;;0.90;0.90;;;24.40;99.90;;;;;;4991355;28;20474;-67
2023/06/26 14:25:27;;;;;;;0.73;0.73;;;24.10;99.90;;;;;;4991005;28;20478;-67
2023/06/26 14:27:54;;;;;;;1.40;1.30;;;24.00;99.90;;;;;;4990337;28;20499;-67
2023/06/26 14:30:21;;;;;;;1.10;1.10;;;23.90;99.90;;;;;;4990122;28;20463;-67
2023/06/26 14:32:48;;;;;;;1.23;0.80;;;23.80;99.90;;;;;;4990183;28;20572;-67
2023/06/26 14:35:15;;;;;;;0.87;0.87;;;23.80;99.90;;;;;;4990760;28;20466;-68
2023/06/26 14:37:43;;;;;;;1.60;1.03;;;23.90;99.90;;;;;;4990807;28;20466;-68
2023/06/26 14:40:13;;;;;;;5.60;1.70;;;24.00;99.90;;;;;;4990837;28;20503;-68
2023/06/26 14:42:39;;;;;;;2.00;1.90;;;24.00;99.90;;;;;;4989971;28;20489;-67
2023/06/26 14:45:07;;;;;;;1.97;1.73;;;24.00;99.90;;;;;;4989578;28;20478;-67
2023/06/26 14:47:34;;;;;;;0.80;0.80;;;24.00;99.90;;;;;;4990887;28;20497;-68
2023/06/26 14:50:01;;;;;;;1.03;1.03;;;23.90;99.90;;;;;;4990990;28;20525;-68
2023/06/26 14:52:28;;;;;;;1.00;1.00;;;23.70;99.90;;;;;;4990853;28;20489;-68
2023/06/26 14:54:54;;;;;;;1.20;1.20;;;23.70;99.90;;;;;;4990756;28;20484;-67
2023/06/26 14:57:22;;;;;;;0.83;0.67;;;24.00;99.90;;;;;;4989308;28;20477;-68
2023/06/26 14:59:49;;;;;;;1.30;1.03;;;24.30;99.90;;;;;;4990668;28;20589;-68
2023/06/26 15:02:16;;;;;;;2.77;2.50;;;24.30;99.90;;;;;;4996555;28;20516;-68
2023/06/26 15:04:42;;;;;;;2.47;1.23;;;24.10;99.90;;;;;;4997171;28;20476;-68
2023/06/26 15:07:09;;;;;;;1.40;1.30;;;24.10;99.90;;;;;;4997326;28;20970;-69
2023/06/26 15:09:36;;;;;;;0.67;0.67;;;24.00;99.90;;;;;;4997503;28;20493;-68
2023/06/26 15:12:03;;;;;;;0.53;0.53;;;23.80;99.90;;;;;;4995953;28;20504;-68
2023/06/26 15:14:31;;;;;;;0.63;0.63;;;23.80;99.90;;;;;;4997472;28;20480;-68
2023/06/26 15:16:58;;;;;;;0.70;0.70;;;23.90;99.90;;;;;;4997089;28;20472;-68
2023/06/26 15:19:24;;;;;;;1.40;0.87;;;24.10;99.90;;;;;;4997156;28;20835;-68
2023/06/26 15:21:51;;;;;;;4.10;1.37;;;24.30;99.90;;;;;;4997532;28;20490;-68
2023/06/26 15:24:18;;;;;;;0.80;0.80;;;24.60;99.90;;;;;;4995928;28;20467;-68
2023/06/26 15:26:44;;;;;;;1.33;0.80;;;24.90;99.90;;;;;;4996877;28;20467;-68
2023/06/26 15:29:14;;;;;;;1.00;1.00;;;25.00;99.90;;;;;;4997107;28;21009;-67
2023/06/26 15:31:42;;;;;;;0.80;0.80;;;24.90;99.90;;;;;;4997038;28;20487;-68
2023/06/26 15:34:09;;;;;;;0.83;0.70;;;24.80;99.90;;;;;;4995364;28;20811;-68
2023/06/26 15:36:36;;;;;;;1.10;0.83;;;24.70;99.90;;;;;;4996807;28;20471;-67
2023/06/26 15:39:02;;;;;;;0.70;0.70;;;24.60;99.90;;;;;;4997186;28;20959;-67
2023/06/26 15:41:29;;;;;;;0.77;0.77;;;24.30;99.90;;;;;;4996458;28;20575;-67
2023/06/26 15:43:56;;;;;;;1.17;1.13;;;24.10;99.90;;;;;;4996362;28;20474;-67
2023/06/26 15:46:22;;;;;;;1.63;1.10;;;24.00;99.90;;;;;;4996480;28;20466;-68
2023/06/26 15:48:50;;;;;;;2.67;0.87;;;23.70;99.90;;;;;;4995335;28;21035;-69
2023/06/26 15:51:17;;;;;;;0.87;0.87;;;23.40;99.90;;;;;;4996676;28;20482;-68
2023/06/26 15:53:44;;;;;;;1.03;0.90;;;23.20;99.90;;;;;;4996731;28;20472;-68
2023/06/26 15:56:12;;;;;;;1.10;1.00;;;23.00;99.90;;;;;;4995932;28;20473;-68
2023/06/26 15:58:41;;;;;;;1.60;1.17;;;22.90;99.90;;;;;;4996622;28;20461;-67
2023/06/26 16:01:08;;;;;;;0.43;0.43;;;23.00;99.90;;;;;;4994912;28;20570;-67
2023/06/26 16:03:35;;;;;;;0.70;0.70;;;22.90;99.90;;;;;;4987544;28;20469;-67
2023/06/26 16:06:04;;;;;;;1.13;0.73;;;22.80;99.90;;;;;;4996028;28;20612;-67
2023/06/26 16:08:30;;;;;;;5.70;1.83;;;22.90;99.90;;;;;;4996156;28;20496;-67
2023/06/26 16:10:57;;;;;;;3.97;0.80;;;22.90;99.90;;;;;;4996233;28;20489;-67
2023/06/26 16:13:25;;;;;;;0.40;0.40;;;23.10;99.90;;;;;;4993464;28;20861;-67
2023/06/26 16:15:52;;;;;;;0.63;0.63;;;23.10;99.90;;;;;;4991905;28;20505;-67
2023/06/26 16:18:19;;;;;;;0.93;0.93;;;23.00;99.90;;;;;;4989474;28;20469;-67
2023/06/26 16:20:46;;;;;;;0.40;0.40;;;23.00;99.90;;;;;;4993569;28;20487;-68
2023/06/26 16:23:14;;;;;;;0.73;0.73;;;22.90;99.90;;;;;;4992838;28;20472;-68
2023/06/26 16:25:41;;;;;;;0.40;0.40;;;22.80;99.90;;;;;;4992004;28;20623;-67
2023/06/26 16:28:08;;;;;;;0.97;0.70;;;22.70;99.90;;;;;;4993003;28;20845;-67
2023/06/26 16:30:34;;;;;;;1.13;0.90;;;22.50;99.90;;;;;;4989894;28;20834;-67
2023/06/26 16:33:01;;;;;;;0.37;0.37;;;22.40;99.90;;;;;;4988582;28;20465;-68
2023/06/26 16:35:29;;;;;;;1.10;0.60;;;22.30;99.90;;;;;;4992606;28;20549;-68
2023/06/26 16:37:57;;;;;;;0.50;0.50;;;22.30;99.90;;;;;;4992968;28;20468;-68
2023/06/26 16:40:25;;;;;;;2.27;0.97;;;22.20;99.90;;;;;;4992123;28;20469;-67
2023/06/26 16:42:51;;;;;;;0.60;0.60;;;22.20;99.90;;;;;;4984250;28;20813;-67
2023/06/26 16:45:18;;;;;;;0.90;0.80;;;22.10;99.90;;;;;;4992687;28;20567;-65
2023/06/26 16:47:45;;;;;;;0.80;0.80;;;22.10;99.90;;;;;;4990409;28;20543;-67
2023/06/26 16:50:12;;;;;;;4.13;0.90;;;22.10;99.90;;;;;;4992587;28;20824;-67
2023/06/26 16:52:40;;;;;;;0.30;0.30;;;22.20;99.90;;;;;;4992758;28;20488;-67